Time;durP1;ratioP1;P1;durP2;ratioP2;P2;SDS_P1;SDS_P2;PMS_P1;PMS_P2;Temp;Humidity;BMP_temperature;BMP_pressure;BME280_temperature;BME280_humidity;BME280_pressure;Samples;Min_cycle;Max_cycle;Signal;HPM_P1;HPM_P2
2021/07/20 00:01:29;;;;;;;6.80;3.40;;;;;;;20.71;100.00;100149.50;1756073;81;21093;-89
2021/07/20 00:03:56;;;;;;;4.95;3.22;;;;;;;20.69;100.00;100147.66;1761990;81;21298;-89
2021/07/20 00:06:23;;;;;;;5.65;3.12;;;;;;;20.67;100.00;100144.42;1763008;81;21068;-89
2021/07/20 00:08:49;;;;;;;5.58;3.15;;;;;;;20.67;100.00;100136.10;1758263;81;21302;-88
2021/07/20 00:11:16;;;;;;;8.03;3.65;;;;;;;20.68;100.00;100130.20;1732035;82;21561;-88
2021/07/20 00:13:42;;;;;;;5.40;2.90;;;;;;;20.70;100.00;100131.25;1731886;82;21011;-85
2021/07/20 00:16:09;;;;;;;10.15;3.47;;;;;;;20.72;100.00;100120.56;1733422;82;21024;-85
2021/07/20 00:18:36;;;;;;;5.60;3.12;;;;;;;20.75;100.00;100111.55;1743741;81;21518;-88
2021/07/20 00:21:05;;;;;;;4.10;2.77;;;;;;;20.78;100.00;100110.83;1761846;81;21035;-85
2021/07/20 00:23:31;;;;;;;8.53;3.27;;;;;;;20.81;100.00;100111.50;1761154;81;21028;-89
2021/07/20 00:25:58;;;;;;;3.75;2.50;;;;;;;20.85;100.00;100120.73;1736081;81;21011;-88
2021/07/20 00:28:25;;;;;;;7.40;3.58;;;;;;;20.87;100.00;100111.48;1739073;81;21115;-85
2021/07/20 00:30:52;;;;;;;3.80;2.50;;;;;;;20.88;100.00;100110.30;1731888;82;21051;-85
2021/07/20 00:33:19;;;;;;;6.95;2.37;;;;;;;20.89;100.00;100111.90;1670960;84;21099;-86
2021/07/20 00:35:46;;;;;;;5.30;3.10;;;;;;;20.93;100.00;100113.39;1730863;81;21043;-88
2021/07/20 00:38:13;;;;;;;5.00;3.10;;;;;;;20.94;100.00;100103.30;1698296;83;20946;-86
2021/07/20 00:40:42;;;;;;;6.28;3.25;;;;;;;20.95;100.00;100103.55;1724034;83;20929;-85
2021/07/20 00:43:09;;;;;;;4.95;2.52;;;;;;;20.96;100.00;100091.25;1724063;83;21095;-90
2021/07/20 00:45:38;;;;;;;7.03;3.20;;;;;;;20.99;100.00;100090.56;1724150;83;21051;-89
2021/07/20 00:48:05;;;;;;;6.35;3.58;;;;;;;21.01;100.00;100079.08;1724743;81;21035;-89
2021/07/20 00:50:37;;;;;;;4.87;3.35;;;;;;;21.03;100.00;100074.77;1723745;82;21001;-89
2021/07/20 00:53:05;;;;;;;5.10;3.20;;;;;;;21.06;100.00;100094.08;1725031;83;21047;-85
2021/07/20 00:55:36;;;;;;;8.33;3.27;;;;;;;21.08;100.00;100115.37;1745421;81;21036;-88
2021/07/20 00:58:04;;;;;;;5.05;2.72;;;;;;;21.13;100.00;100117.07;1715218;82;21588;-85
2021/07/20 01:00:31;;;;;;;6.47;3.08;;;;;;;21.13;100.00;100111.52;1724060;83;21059;-86
2021/07/20 01:02:58;;;;;;;7.22;2.70;;;;;;;21.13;100.00;100108.73;1725333;81;21868;-88
2021/07/20 01:05:26;;;;;;;7.20;3.42;;;;;;;21.14;100.00;100103.39;1754193;81;21077;-88
2021/07/20 01:07:54;;;;;;;5.05;2.92;;;;;;;21.14;100.00;100097.28;1753949;81;21094;-88
2021/07/20 01:10:23;;;;;;;6.17;3.40;;;;;;;21.13;100.00;100098.42;1753921;81;21482;-89
2021/07/20 01:12:50;;;;;;;6.10;3.30;;;;;;;21.12;100.00;100101.58;1753711;81;21588;-88
2021/07/20 01:15:21;;;;;;;4.40;2.90;;;;;;;21.12;100.00;100106.55;1731628;81;21025;-86
2021/07/20 01:17:49;;;;;;;7.17;3.83;;;;;;;21.15;100.00;100107.80;1724335;82;21028;-88
2021/07/20 01:20:19;;;;;;;8.30;3.75;;;;;;;21.15;100.00;100114.16;1698757;83;21503;-85
2021/07/20 01:23:11;;;;;;;4.30;2.72;;;;;;;21.17;100.00;100116.00;1743387;81;21043;-88
2021/07/20 01:25:38;;;;;;;5.12;2.72;;;;;;;21.18;100.00;100115.41;1743995;81;21092;-88
2021/07/20 01:28:07;;;;;;;5.55;2.95;;;;;;;21.15;100.00;100118.91;1723587;82;21080;-85
2021/07/20 01:30:36;;;;;;;5.85;3.35;;;;;;;21.13;100.00;100114.30;1741052;81;20930;-88
2021/07/20 01:33:03;;;;;;;8.05;3.95;;;;;;;21.10;100.00;100119.19;1700365;83;21138;-88
2021/07/20 01:35:30;;;;;;;5.80;3.30;;;;;;;21.04;100.00;100114.45;1722546;83;21083;-85
2021/07/20 01:37:59;;;;;;;3.25;2.37;;;;;;;21.00;100.00;100112.99;1708883;82;21506;-85
2021/07/20 01:40:28;;;;;;;6.55;3.20;;;;;;;20.97;100.00;100106.77;1725821;81;20967;-85
2021/07/20 01:42:55;;;;;;;7.30;3.08;;;;;;;20.93;100.00;100111.42;1696017;84;21032;-88
2021/07/20 01:45:23;;;;;;;8.48;3.58;;;;;;;20.90;100.00;100113.53;1693249;84;21047;-85
2021/07/20 01:47:51;;;;;;;7.15;3.70;;;;;;;20.88;100.00;100117.83;1698999;83;21055;-88
2021/07/20 01:50:19;;;;;;;4.58;2.62;;;;;;;20.88;100.00;100118.63;1722223;83;21108;-85
2021/07/20 01:52:45;;;;;;;5.95;4.00;;;;;;;20.87;100.00;100122.58;1728506;81;21061;-88
2021/07/20 01:55:14;;;;;;;7.10;3.98;;;;;;;20.85;100.00;100124.91;1704968;81;21057;-88
2021/07/20 01:57:41;;;;;;;5.60;3.15;;;;;;;20.84;100.00;100123.27;1696217;81;21087;-85
2021/07/20 02:00:16;;;;;;;6.22;3.60;;;;;;;20.81;100.00;100125.37;1673970;84;21053;-88
2021/07/20 02:08:29;;;;;;;8.20;4.05;;;;;;;20.69;100.00;100136.55;1702516;82;21558;-89
2021/07/20 02:11:08;;;;;;;7.75;3.22;;;;;;;20.60;100.00;100131.98;1702423;84;21497;-85
2021/07/20 02:13:51;;;;;;;7.75;3.52;;;;;;;20.56;100.00;100129.68;1665392;84;21059;-86
2021/07/20 02:16:32;;;;;;;3.87;2.58;;;;;;;20.49;100.00;100135.00;1745536;81;21271;-89
2021/07/20 02:19:04;;;;;;;5.17;2.90;;;;;;;20.43;100.00;100132.85;1727243;81;21038;-85
2021/07/20 02:21:36;;;;;;;5.25;2.90;;;;;;;20.36;100.00;100129.28;1714470;81;21072;-88
2021/07/20 02:24:03;;;;;;;9.50;3.47;;;;;;;20.33;100.00;100134.16;1723852;82;20925;-88
2021/07/20 02:26:29;;;;;;;6.92;3.45;;;;;;;20.30;100.00;100132.91;1723767;81;21071;-88
2021/07/20 02:28:56;;;;;;;4.60;2.47;;;;;;;20.28;100.00;100133.03;1723924;83;21091;-85
2021/07/20 02:31:23;;;;;;;5.95;3.15;;;;;;;20.26;100.00;100129.80;1686388;84;21036;-89
2021/07/20 02:33:51;;;;;;;7.83;3.27;;;;;;;20.25;100.00;100125.39;1730794;81;21469;-89
2021/07/20 02:36:19;;;;;;;4.00;2.98;;;;;;;20.23;100.00;100126.31;1680200;82;21036;-89
2021/07/20 02:38:45;;;;;;;7.70;3.62;;;;;;;20.22;100.00;100124.71;1703598;82;21044;-85
2021/07/20 02:41:14;;;;;;;6.60;3.50;;;;;;;20.22;100.00;100126.09;1730395;81;21059;-88
2021/07/20 02:43:44;;;;;;;7.00;3.17;;;;;;;20.21;100.00;100127.27;1746620;81;22261;-85
2021/07/20 02:46:11;;;;;;;6.78;3.42;;;;;;;20.21;100.00;100127.27;1762141;81;21008;-89
2021/07/20 02:48:39;;;;;;;9.30;2.72;;;;;;;20.22;100.00;100129.67;1735270;81;21031;-89
2021/07/20 02:51:08;;;;;;;6.53;3.25;;;;;;;20.17;100.00;100120.22;1731428;82;21092;-89
2021/07/20 02:53:38;;;;;;;5.33;3.52;;;;;;;20.17;100.00;100120.22;1755719;81;20947;-85
2021/07/20 02:56:08;;;;;;;6.30;3.62;;;;;;;20.12;100.00;100126.81;1760237;81;21634;-89
2021/07/20 02:58:37;;;;;;;8.85;3.15;;;;;;;20.12;100.00;100126.81;1711751;82;21027;-85
2021/07/20 03:01:05;;;;;;;8.03;3.60;;;;;;;20.10;100.00;100118.63;1707387;81;21541;-89
2021/07/20 03:03:31;;;;;;;6.05;3.27;;;;;;;20.09;100.00;100119.20;1731486;82;21036;-88
2021/07/20 03:05:59;;;;;;;4.78;3.00;;;;;;;20.13;100.00;100117.94;1732657;82;20997;-89
2021/07/20 03:08:34;;;;;;;5.83;3.45;;;;;;;20.18;100.00;100118.48;1730546;82;21094;-89
2021/07/20 03:11:07;;;;;;;14.75;5.25;;;;;;;20.21;100.00;100116.17;1714207;82;20971;-88
2021/07/20 03:13:38;;;;;;;13.50;5.78;;;;;;;20.23;100.00;100122.98;1730679;82;21092;-85
2021/07/20 03:16:08;;;;;;;7.53;4.15;;;;;;;20.30;100.00;100129.30;1704752;82;21120;-85
2021/07/20 03:18:36;;;;;;;5.37;3.17;;;;;;;20.38;100.00;100133.91;1761909;81;21027;-88
2021/07/20 03:21:04;;;;;;;6.17;3.33;;;;;;;20.49;100.00;100133.61;1682284;84;21589;-88
2021/07/20 03:23:30;;;;;;;7.87;3.65;;;;;;;20.58;100.00;100134.30;1715190;82;21079;-85
2021/07/20 03:25:58;;;;;;;7.10;3.80;;;;;;;20.67;100.00;100138.87;1760846;81;21040;-85
2021/07/20 03:28:25;;;;;;;5.33;2.90;;;;;;;20.75;100.00;100140.12;1730604;82;21309;-84
2021/07/20 03:30:52;;;;;;;5.83;3.50;;;;;;;20.81;100.00;100144.81;1736246;81;20980;-85
2021/07/20 03:33:21;;;;;;;6.87;3.47;;;;;;;20.83;100.00;100150.83;1736255;81;21032;-85
2021/07/20 03:35:51;;;;;;;11.45;4.62;;;;;;;20.87;100.00;100142.58;1736808;81;21068;-85
2021/07/20 03:38:18;;;;;;;4.67;2.77;;;;;;;20.92;100.00;100142.31;1756445;81;21031;-85
2021/07/20 03:40:47;;;;;;;6.67;3.50;;;;;;;20.98;100.00;100144.48;1702599;82;21110;-85
2021/07/20 03:43:15;;;;;;;7.50;3.17;;;;;;;21.07;100.00;100142.94;1702903;84;21172;-87
2021/07/20 03:45:42;;;;;;;6.15;2.98;;;;;;;21.16;100.00;100151.08;1678486;82;21096;-85
2021/07/20 03:48:13;;;;;;;6.62;3.70;;;;;;;21.28;100.00;100149.59;1737173;82;21080;-88
2021/07/20 03:50:57;;;;;;;7.42;3.95;;;;;;;21.38;100.00;100153.22;1725438;82;21668;-88
2021/07/20 03:53:25;;;;;;;7.03;4.03;;;;;;;21.46;100.00;100153.66;1710665;82;21291;-85
2021/07/20 03:55:55;;;;;;;6.17;3.27;;;;;;;21.57;100.00;100158.67;1699216;84;21035;-88
2021/07/20 03:58:22;;;;;;;5.72;3.75;;;;;;;21.68;100.00;100154.95;1711432;83;21124;-89
2021/07/20 04:00:51;;;;;;;8.65;3.33;;;;;;;21.83;100.00;100153.30;1713041;82;21112;-88
2021/07/20 04:03:26;;;;;;;3.98;2.70;;;;;;;22.01;100.00;100152.92;1722439;82;21060;-85
2021/07/20 04:06:09;;;;;;;8.15;3.70;;;;;;;22.18;100.00;100151.11;1740750;82;21604;-88
2021/07/20 04:08:47;;;;;;;;;;;;;;;22.35;100.00;100141.53;1702063;82;21045;-88
2021/07/20 04:11:15;;;;;;;6.03;2.65;;;;;;;22.46;100.00;100132.81;1713611;82;20226;-88
2021/07/20 04:13:43;;;;;;;4.80;2.25;;;;;;;22.54;100.00;100132.37;1714384;82;21044;-89
2021/07/20 04:16:13;;;;;;;5.28;2.80;;;;;;;22.65;100.00;100134.78;1733733;82;21052;-88
2021/07/20 04:18:41;;;;;;;7.17;3.37;;;;;;;22.76;100.00;100135.77;1718973;82;21072;-85
2021/07/20 04:21:09;;;;;;;5.33;3.25;;;;;;;22.86;100.00;100128.78;1712843;82;21097;-89
2021/07/20 04:23:37;;;;;;;4.65;2.33;;;;;;;22.93;100.00;100137.28;1739602;82;21487;-88
2021/07/20 04:26:07;;;;;;;4.75;2.25;;;;;;;22.98;99.38;100141.77;1740049;82;21069;-85
2021/07/20 04:28:36;;;;;;;5.17;2.72;;;;;;;23.06;98.96;100135.14;1741032;82;21055;-88
2021/07/20 04:31:03;;;;;;;3.75;2.45;;;;;;;23.18;98.61;100138.33;1761282;81;21377;-85
2021/07/20 04:33:32;;;;;;;5.45;2.42;;;;;;;23.32;97.49;100139.17;1701216;82;21069;-85
2021/07/20 04:36:19;;;;;;;4.47;2.72;;;;;;;23.40;95.80;100136.70;1751503;81;21029;-85
2021/07/20 04:38:47;;;;;;;3.58;2.55;;;;;;;23.48;94.22;100139.81;1722482;82;21065;-85
2021/07/20 04:41:20;;;;;;;5.85;2.60;;;;;;;23.53;92.74;100143.67;1728850;82;21047;-85
2021/07/20 04:43:47;;;;;;;6.58;2.83;;;;;;;23.63;92.16;100151.19;1716348;82;21451;-85
2021/07/20 04:46:19;;;;;;;7.03;2.83;;;;;;;23.73;92.44;100147.78;1738961;82;21042;-85
2021/07/20 04:48:47;;;;;;;7.37;3.17;;;;;;;23.88;91.93;100149.59;1740175;82;21054;-85
2021/07/20 04:51:15;;;;;;;3.47;2.80;;;;;;;23.97;90.81;100152.91;1702206;82;21114;-85
2021/07/20 04:53:43;;;;;;;3.90;2.52;;;;;;;24.06;90.77;100154.61;1698273;83;21051;-88
2021/07/20 04:56:10;;;;;;;3.52;2.60;;;;;;;24.14;89.20;100157.73;1693055;84;21574;-88
2021/07/20 04:58:40;;;;;;;4.15;2.55;;;;;;;24.18;88.86;100150.19;1694210;83;21051;-89
2021/07/20 05:01:08;;;;;;;3.52;2.27;;;;;;;24.23;88.07;100157.66;1732857;81;21510;-85
2021/07/20 05:03:38;;;;;;;5.62;2.90;;;;;;;24.28;87.59;100155.70;1724902;81;21060;-85
2021/07/20 05:06:04;;;;;;;4.70;2.70;;;;;;;24.32;86.86;100154.56;1724377;83;22390;-85
2021/07/20 05:08:33;;;;;;;4.20;2.75;;;;;;;24.35;86.19;100146.81;1734306;81;21091;-88
2021/07/20 05:11:01;;;;;;;4.22;2.58;;;;;;;24.37;85.59;100156.22;1716511;83;21029;-88
2021/07/20 05:13:29;;;;;;;5.40;2.77;;;;;;;24.35;85.67;100162.17;1719322;82;21104;-85
2021/07/20 05:15:59;;;;;;;6.80;2.35;;;;;;;24.37;85.47;100168.19;1723982;81;21473;-85
2021/07/20 05:18:28;;;;;;;5.00;2.67;;;;;;;24.49;85.92;100163.58;1722142;82;21065;-88
2021/07/20 05:20:57;;;;;;;9.73;3.00;;;;;;;24.59;84.97;100168.48;1687884;82;21068;-88
2021/07/20 05:23:24;;;;;;;3.90;2.22;;;;;;;24.66;84.77;100161.58;1705757;82;21132;-87
2021/07/20 05:25:56;;;;;;;7.67;3.12;;;;;;;24.81;84.07;100164.73;1708328;82;21088;-89
2021/07/20 05:28:26;;;;;;;4.47;2.67;;;;;;;24.94;83.52;100170.05;1703768;82;21580;-85
2021/07/20 05:30:58;;;;;;;3.85;2.40;;;;;;;24.98;82.73;100175.09;1681632;82;21069;-85
2021/07/20 05:33:24;;;;;;;3.87;2.83;;;;;;;25.07;82.55;100172.77;1695132;83;21067;-85
2021/07/20 05:36:00;;;;;;;4.75;2.40;;;;;;;25.20;81.57;100169.95;1716530;82;21332;-88
2021/07/20 05:38:28;;;;;;;4.90;2.52;;;;;;;25.27;80.88;100167.22;1709030;82;21060;-86
2021/07/20 05:40:58;;;;;;;3.47;2.12;;;;;;;25.27;81.10;100166.39;1714711;82;22237;-89
2021/07/20 05:43:29;;;;;;;4.08;2.40;;;;;;;25.33;81.28;100171.84;1708448;82;21052;-86
2021/07/20 05:46:02;;;;;;;6.58;2.58;;;;;;;25.49;80.37;100178.56;1731986;82;21905;-86
2021/07/20 05:48:30;;;;;;;4.08;2.42;;;;;;;25.67;79.59;100173.13;1733241;82;21049;-85
2021/07/20 05:51:00;;;;;;;4.03;2.22;;;;;;;25.86;79.06;100169.26;1736414;82;21830;-85
2021/07/20 05:53:33;;;;;;;3.70;2.10;;;;;;;25.96;77.98;100168.52;1710947;82;21048;-85
2021/07/20 05:56:03;;;;;;;5.47;2.40;;;;;;;26.09;77.88;100173.22;1664285;82;21105;-89
2021/07/20 05:58:31;;;;;;;4.97;2.33;;;;;;;26.22;77.53;100172.27;1699473;82;21049;-89
2021/07/20 06:01:02;;;;;;;3.92;2.35;;;;;;;26.33;76.45;100172.50;1680099;84;21096;-85
2021/07/20 06:03:32;;;;;;;4.60;3.00;;;;;;;26.40;75.94;100175.95;1702909;82;21485;-89
2021/07/20 06:05:58;;;;;;;4.60;2.98;;;;;;;26.48;75.67;100180.37;1720802;83;21097;-86
2021/07/20 06:08:26;;;;;;;3.10;2.00;;;;;;;26.58;75.84;100176.86;1707992;84;20980;-89
2021/07/20 06:10:59;;;;;;;2.70;2.15;;;;;;;26.72;73.97;100177.48;1713274;83;21171;-86
2021/07/20 06:13:30;;;;;;;3.08;2.02;;;;;;;26.72;72.40;100172.48;1713961;82;21104;-86
2021/07/20 06:15:57;;;;;;;2.75;2.27;;;;;;;26.69;72.49;100168.48;1728101;81;20993;-85
2021/07/20 06:18:24;;;;;;;4.17;2.42;;;;;;;26.71;73.17;100168.09;1688455;83;22084;-86
2021/07/20 06:21:00;;;;;;;5.05;2.37;;;;;;;26.75;73.54;100164.68;1728737;82;21119;-90
2021/07/20 06:23:29;;;;;;;3.33;2.20;;;;;;;26.77;71.96;100168.69;1709143;82;21044;-89
2021/07/20 06:25:56;;;;;;;3.77;2.05;;;;;;;26.80;69.50;100169.32;1708059;84;21016;-89
2021/07/20 06:28:23;;;;;;;5.50;2.22;;;;;;;26.80;69.83;100168.49;1717174;82;21052;-89
2021/07/20 06:30:50;;;;;;;3.25;2.00;;;;;;;26.76;69.79;100174.10;1700417;83;21085;-85
2021/07/20 06:33:17;;;;;;;3.25;1.87;;;;;;;26.84;69.83;100176.32;1726125;81;21065;-89
2021/07/20 06:35:44;;;;;;;3.50;1.90;;;;;;;26.82;69.15;100171.70;1700846;82;21700;-90
2021/07/20 06:38:16;;;;;;;4.40;2.45;;;;;;;26.83;69.44;100173.33;1724128;82;21073;-85
2021/07/20 06:40:44;;;;;;;;;;;;;;;26.92;69.13;100173.73;1736010;82;20980;-86
2021/07/20 06:43:14;;;;;;;2.47;1.72;;;;;;;26.97;67.17;100169.13;1732692;82;20202;-85
2021/07/20 06:45:43;;;;;;;2.37;1.72;;;;;;;26.93;66.92;100175.34;1740342;82;21108;-89
2021/07/20 06:48:17;;;;;;;3.75;1.90;;;;;;;26.93;65.74;100174.52;1755306;81;21057;-86
2021/07/20 06:50:45;;;;;;;4.35;1.92;;;;;;;26.95;66.22;100170.73;1723149;83;21049;-86
2021/07/20 06:53:12;;;;;;;3.65;2.65;;;;;;;27.15;67.74;100173.95;1711514;82;21790;-86
2021/07/20 06:55:45;;;;;;;3.55;1.60;;;;;;;27.29;67.33;100169.80;1744526;81;21034;-90
2021/07/20 06:58:13;;;;;;;4.08;2.47;;;;;;;27.32;67.13;100166.18;1753294;81;20989;-86
2021/07/20 07:00:49;;;;;;;3.55;2.58;;;;;;;27.36;66.88;100162.78;1753053;81;21024;-86
2021/07/20 07:03:17;;;;;;;5.00;2.58;;;;;;;27.48;66.31;100165.80;1750372;81;21182;-86
2021/07/20 07:05:43;;;;;;;2.75;2.00;;;;;;;27.63;66.92;100165.18;1724077;83;20962;-86
2021/07/20 07:08:10;;;;;;;4.15;2.27;;;;;;;27.73;67.14;100162.16;1723347;83;21469;-90
2021/07/20 07:10:37;;;;;;;5.20;2.98;;;;;;;27.86;66.62;100161.95;1722519;83;22109;-86
2021/07/20 07:13:07;;;;;;;2.12;1.92;;;;;;;28.03;65.95;100165.93;1716927;81;21055;-91
2021/07/20 07:15:35;;;;;;;4.22;2.12;;;;;;;28.14;64.35;100165.31;1723488;83;21051;-90
2021/07/20 07:18:03;;;;;;;5.03;2.30;;;;;;;28.28;63.28;100158.81;1723485;83;21521;-91
2021/07/20 07:20:30;;;;;;;2.77;1.95;;;;;;;28.45;62.19;100158.58;1727333;81;21048;-85
2021/07/20 07:22:58;;;;;;;3.47;1.77;;;;;;;28.58;61.77;100154.09;1732399;81;21032;-85
2021/07/20 07:25:24;;;;;;;5.10;2.33;;;;;;;28.60;61.02;100161.52;1679290;84;21110;-91
2021/07/20 07:27:52;;;;;;;3.12;2.22;;;;;;;28.59;60.98;100157.11;1711231;83;21120;-91
2021/07/20 07:30:18;;;;;;;4.95;2.27;;;;;;;28.67;60.94;100155.85;1690179;83;21462;-91
2021/07/20 07:32:45;;;;;;;2.35;1.90;;;;;;;28.65;61.14;100145.62;1728397;81;21322;-90
2021/07/20 07:35:12;;;;;;;3.70;2.15;;;;;;;28.58;61.44;100149.08;1731013;81;21048;-86
2021/07/20 07:37:39;;;;;;;3.62;2.22;;;;;;;28.56;61.92;100141.66;1723481;82;21533;-89
2021/07/20 07:40:08;;;;;;;4.58;2.12;;;;;;;28.63;61.75;100140.21;1731840;82;21096;-90
2021/07/20 07:42:38;;;;;;;4.58;2.45;;;;;;;28.61;63.34;100139.23;1731316;82;21055;-86
2021/07/20 07:45:06;;;;;;;5.65;2.47;;;;;;;28.68;62.06;100139.17;1761710;81;21079;-86
2021/07/20 07:47:33;;;;;;;2.80;2.52;;;;;;;28.76;61.78;100141.36;1705467;82;21738;-86
2021/07/20 07:49:59;;;;;;;3.02;2.35;;;;;;;28.82;60.70;100137.50;1716113;82;21107;-86
2021/07/20 07:52:26;;;;;;;6.75;2.25;;;;;;;28.81;60.78;100140.09;1706556;82;21120;-86
2021/07/20 07:54:53;;;;;;;4.20;2.72;;;;;;;28.79;62.08;100136.92;1735922;81;21079;-91
2021/07/20 07:57:20;;;;;;;3.20;2.20;;;;;;;28.89;61.54;100141.06;1732714;82;21058;-92
2021/07/20 07:59:52;;;;;;;3.95;2.70;;;;;;;28.95;60.28;100146.42;1729166;82;21032;-91
2021/07/20 08:02:23;;;;;;;4.37;2.00;;;;;;;28.81;61.14;100142.91;1731357;82;21080;-86
2021/07/20 08:04:49;;;;;;;2.37;2.07;;;;;;;28.74;61.93;100143.77;1729630;82;21517;-86
2021/07/20 08:07:17;;;;;;;3.33;2.17;;;;;;;28.82;62.43;100152.96;1706097;81;21056;-90
2021/07/20 08:09:46;;;;;;;3.50;1.90;;;;;;;28.85;62.63;100147.30;1734305;81;21086;-88
2021/07/20 08:12:13;;;;;;;2.75;1.80;;;;;;;28.93;61.19;100142.42;1731622;82;21017;-86
2021/07/20 08:14:40;;;;;;;3.98;2.50;;;;;;;29.05;60.24;100150.38;1732815;82;21064;-86
2021/07/20 08:17:06;;;;;;;3.80;2.37;;;;;;;29.03;58.70;100144.39;1743509;81;21111;-91
2021/07/20 08:19:36;;;;;;;3.98;2.05;;;;;;;29.00;59.33;100151.43;1759738;81;21005;-91
2021/07/20 08:22:07;;;;;;;3.33;1.92;;;;;;;29.00;60.10;100149.41;1762090;81;21047;-91
2021/07/20 08:24:34;;;;;;;2.83;1.85;;;;;;;28.97;59.15;100140.40;1735900;81;21082;-92
2021/07/20 08:27:03;;;;;;;3.30;2.05;;;;;;;28.95;59.89;100142.81;1757468;81;21106;-86
2021/07/20 08:29:34;;;;;;;2.85;2.17;;;;;;;28.97;61.07;100136.18;1761448;81;21522;-86
2021/07/20 08:32:10;;;;;;;4.67;2.80;;;;;;;29.15;60.59;100143.92;1764058;81;21043;-86
2021/07/20 08:34:45;;;;;;;5.60;2.50;;;;;;;29.25;60.13;100138.61;1747088;81;21033;-90
2021/07/20 08:37:13;;;;;;;4.75;1.85;;;;;;;29.30;59.62;100140.97;1675866;84;21609;-86
2021/07/20 08:39:40;;;;;;;4.10;2.22;;;;;;;29.39;59.94;100141.30;1702357;84;21522;-91
2021/07/20 08:42:27;;;;;;;4.47;2.60;;;;;;;29.59;58.56;100142.92;1702284;84;21065;-86
2021/07/20 08:45:09;;;;;;;2.98;1.92;;;;;;;29.74;57.60;100137.98;1714381;82;21061;-91
2021/07/20 08:47:51;;;;;;;;;;;;;;;29.87;57.25;100144.70;1682447;83;21374;-91
2021/07/20 08:50:28;;;;;;;2.65;1.92;;;;;;;29.85;56.68;100140.67;1702205;84;20205;-86
2021/07/20 08:53:04;;;;;;;2.40;1.57;;;;;;;29.85;56.59;100135.86;1704356;82;21668;-87
2021/07/20 08:55:37;;;;;;;2.58;2.08;;;;;;;29.97;57.31;100134.50;1725338;82;21096;-90
2021/07/20 08:58:06;;;;;;;3.00;2.00;;;;;;;30.11;56.32;100132.92;1731673;82;21064;-91
2021/07/20 09:00:42;;;;;;;2.65;2.12;;;;;;;29.99;55.80;100125.03;1731508;82;21069;-91
2021/07/20 09:03:32;;;;;;;3.27;2.25;;;;;;;29.87;55.58;100128.37;1722467;82;21064;-86
2021/07/20 09:06:23;;;;;;;5.33;1.92;;;;;;;29.78;55.26;100126.08;1702366;84;22385;-91
2021/07/20 09:09:07;;;;;;;3.92;2.05;;;;;;;29.81;55.70;100120.22;1716797;83;21032;-86
2021/07/20 09:12:05;;;;;;;5.62;2.20;;;;;;;29.88;56.52;100115.30;1717487;82;21032;-86
2021/07/20 09:14:44;;;;;;;2.33;2.00;;;;;;;29.88;54.76;100110.28;1679014;85;21044;-91
2021/07/20 09:17:18;;;;;;;2.05;1.60;;;;;;;29.83;55.21;100110.12;1707971;84;21104;-87
2021/07/20 09:20:14;;;;;;;2.83;1.80;;;;;;;29.79;55.49;100110.77;1707665;84;21080;-86
2021/07/20 09:22:57;;;;;;;6.58;2.37;;;;;;;29.72;54.78;100112.25;1720733;82;20957;-91
2021/07/20 09:25:34;;;;;;;2.00;1.72;;;;;;;29.63;54.40;100106.31;1738434;82;21061;-91
2021/07/20 09:28:15;;;;;;;2.10;1.77;;;;;;;29.59;56.32;100102.89;1708747;82;21057;-87
2021/07/20 09:30:46;;;;;;;3.35;1.77;;;;;;;29.71;57.60;100098.00;1702003;84;21097;-86
2021/07/20 09:33:41;;;;;;;2.58;1.95;;;;;;;29.91;57.48;100090.52;1708178;82;20929;-91
2021/07/20 09:36:30;;;;;;;4.15;2.20;;;;;;;30.15;53.78;100086.41;1715319;82;21043;-86
2021/07/20 09:39:17;;;;;;;3.95;1.77;;;;;;;30.26;52.99;100096.95;1728847;82;20973;-86
2021/07/20 09:41:54;;;;;;;2.85;2.02;;;;;;;30.18;53.85;100091.20;1673655;85;21045;-87
2021/07/20 09:44:28;;;;;;;3.25;2.10;;;;;;;30.25;53.58;100096.77;1697323;84;21069;-91
2021/07/20 09:47:15;;;;;;;2.47;1.92;;;;;;;30.33;52.23;100089.81;1704443;83;20921;-90
2021/07/20 09:50:14;;;;;;;2.35;1.75;;;;;;;30.43;52.44;100086.66;1724124;82;21056;-86
2021/07/20 09:53:11;;;;;;;3.22;1.67;;;;;;;30.62;53.23;100085.98;1737803;82;21041;-92
2021/07/20 09:56:01;;;;;;;1.90;1.57;;;;;;;30.76;51.66;100084.16;1737208;82;21056;-85
2021/07/20 09:58:32;;;;;;;2.77;1.90;;;;;;;30.50;51.35;100088.59;1728231;82;21514;-92
2021/07/20 10:01:22;;;;;;;2.85;2.10;;;;;;;30.27;53.27;100090.11;1681695;82;21139;-86
2021/07/20 10:03:57;;;;;;;2.95;1.92;;;;;;;30.38;54.01;100088.55;1706939;82;21576;-92
2021/07/20 10:06:44;;;;;;;1.70;1.52;;;;;;;30.68;53.75;100093.34;1730454;81;20968;-92
2021/07/20 10:09:23;;;;;;;2.83;1.72;;;;;;;30.78;52.75;100084.53;1696177;83;21010;-86
2021/07/20 10:12:27;;;;;;;2.90;2.40;;;;;;;30.84;52.96;100079.43;1689154;84;21048;-86
2021/07/20 10:15:09;;;;;;;4.08;2.37;;;;;;;30.88;52.27;100083.59;1726204;82;21062;-86
2021/07/20 10:17:49;;;;;;;2.83;2.02;;;;;;;30.74;51.76;100078.95;1731613;82;22315;-91
2021/07/20 10:20:23;;;;;;;3.02;2.50;;;;;;;30.67;52.29;100075.45;1687713;82;21032;-86
2021/07/20 10:23:18;;;;;;;4.47;2.00;;;;;;;30.79;52.89;100077.06;1744518;82;22049;-86
2021/07/20 10:26:15;;;;;;;4.30;2.50;;;;;;;30.90;52.71;100075.50;1744769;79;21036;-86
2021/07/20 10:28:51;;;;;;;3.47;2.30;;;;;;;31.00;52.40;100073.73;1714307;83;21044;-91
2021/07/20 10:31:22;;;;;;;3.20;2.47;;;;;;;30.98;52.38;100066.30;1683457;82;21040;-91
2021/07/20 10:33:58;;;;;;;4.62;2.17;;;;;;;31.13;54.51;100069.06;1707166;84;21080;-88
2021/07/20 10:36:32;;;;;;;3.52;2.05;;;;;;;31.42;53.86;100065.77;1710662;82;21557;-92
2021/07/20 10:39:09;;;;;;;5.92;3.27;;;;;;;31.73;53.79;100059.33;1696226;83;21373;-92
2021/07/20 10:42:06;;;;;;;3.67;2.60;;;;;;;31.93;52.31;100069.21;1747462;82;21029;-91
2021/07/20 10:45:00;;;;;;;5.42;2.58;;;;;;;31.97;51.53;100062.88;1727303;82;22123;-86
2021/07/20 10:47:35;;;;;;;4.47;2.12;;;;;;;31.93;51.39;100057.29;1707546;84;21688;-86
2021/07/20 10:50:28;;;;;;;3.50;2.95;;;;;;;31.88;49.70;100058.42;1708134;82;21120;-91
2021/07/20 10:53:09;;;;;;;3.83;2.52;;;;;;;31.69;49.23;100068.48;1699667;84;21061;-92
2021/07/20 10:56:18;;;;;;;4.00;2.27;;;;;;;31.48;50.66;100058.41;1710932;82;21055;-93
2021/07/20 10:59:02;;;;;;;3.65;2.55;;;;;;;31.37;51.59;100053.53;1703344;84;21068;-85
2021/07/20 11:02:03;;;;;;;3.90;2.22;;;;;;;31.39;52.53;100058.17;1663330;83;21008;-89
2021/07/20 11:04:50;;;;;;;3.37;2.37;;;;;;;31.52;51.88;100054.88;1740561;82;21490;-87
2021/07/20 11:07:34;;;;;;;3.83;2.27;;;;;;;31.63;51.45;100053.28;1745099;82;21534;-86
2021/07/20 11:10:15;;;;;;;4.15;2.62;;;;;;;31.77;51.30;100041.67;1744909;81;20987;-92
2021/07/20 11:12:45;;;;;;;3.10;2.37;;;;;;;31.88;50.59;100044.30;1732019;82;21048;-85
2021/07/20 11:15:11;;;;;;;4.80;2.40;;;;;;;31.88;49.70;100040.06;1733793;82;21040;-85
2021/07/20 11:17:38;;;;;;;3.98;2.22;;;;;;;31.84;49.79;100035.09;1717215;82;21049;-87
2021/07/20 11:20:11;;;;;;;3.40;2.33;;;;;;;31.78;50.08;100030.58;1707609;82;21064;-87
2021/07/20 11:22:39;;;;;;;2.20;1.80;;;;;;;31.73;48.91;100034.50;1741223;82;21018;-86
2021/07/20 11:25:07;;;;;;;3.80;2.30;;;;;;;31.63;49.86;100030.69;1739769;82;21088;-86
2021/07/20 11:27:39;;;;;;;2.30;1.82;;;;;;;31.62;48.77;100030.49;1744589;82;21033;-91
2021/07/20 11:30:03;;;;;;;5.53;2.75;;;;;;;31.65;48.28;100020.55;1742998;82;21016;-86
2021/07/20 11:32:31;;;;;;;4.40;2.70;;;;;;;31.76;48.25;100022.36;1716756;80;21083;-90
2021/07/20 11:35:15;;;;;;;3.40;2.60;;;;;;;32.02;49.25;100021.40;1745134;81;21040;-86
2021/07/20 11:37:48;;;;;;;4.10;2.62;;;;;;;32.24;48.40;100012.45;1744854;82;21028;-91
2021/07/20 11:40:18;;;;;;;2.80;2.08;;;;;;;32.24;48.14;100009.63;1740139;82;21036;-86
2021/07/20 11:43:02;;;;;;;2.62;2.25;;;;;;;32.10;48.22;100017.20;1724385;82;21032;-92
2021/07/20 11:45:32;;;;;;;2.90;2.27;;;;;;;32.00;48.37;100018.23;1715393;82;21037;-86
2021/07/20 11:48:11;;;;;;;2.72;2.15;;;;;;;31.90;49.00;100015.00;1740217;82;21529;-93
2021/07/20 11:51:00;;;;;;;3.50;2.22;;;;;;;31.99;48.18;100009.56;1730402;82;20906;-86